createdAt,value
2019-02-22T00:02:09.257Z,46.40
2019-02-22T00:04:36.788Z,46.30
2019-02-22T00:07:04.304Z,46.10
2019-02-22T00:09:31.846Z,45.90
2019-02-22T00:11:59.444Z,45.80
2019-02-22T00:14:26.972Z,45.90
2019-02-22T00:16:54.506Z,46.40
2019-02-22T00:19:22.041Z,45.80
2019-02-22T00:21:49.568Z,45.90
2019-02-22T00:24:17.101Z,45.80
2019-02-22T00:26:44.636Z,45.80
2019-02-22T00:29:12.225Z,45.80
2019-02-22T00:31:39.755Z,45.80
2019-02-22T00:34:07.356Z,45.80
2019-02-22T00:36:34.963Z,45.80
2019-02-22T00:39:02.803Z,45.80
2019-02-22T00:41:30.318Z,45.80
2019-02-22T00:43:57.835Z,45.80
2019-02-22T00:46:25.357Z,45.90
2019-02-22T00:48:52.909Z,45.80
2019-02-22T00:51:20.423Z,45.80
2019-02-22T00:53:47.948Z,45.80
2019-02-22T00:56:15.458Z,45.90
2019-02-22T00:58:42.985Z,45.80
2019-02-22T01:01:10.499Z,45.90
2019-02-22T01:03:38.018Z,45.80
2019-02-22T01:06:05.548Z,45.80
2019-02-22T01:08:33.079Z,45.90
2019-02-22T01:11:00.586Z,46.10
2019-02-22T01:13:28.102Z,46.20
2019-02-22T01:15:55.633Z,46.50
2019-02-22T01:18:23.151Z,46.30
2019-02-22T01:20:54.367Z,46.30
2019-02-22T01:23:20.000Z,46.20
2019-02-22T01:25:47.531Z,46.10
2019-02-22T01:28:15.054Z,45.80
2019-02-22T01:30:42.599Z,45.90
2019-02-22T01:33:10.121Z,45.80
2019-02-22T01:35:37.718Z,45.80
2019-02-22T01:38:05.250Z,46.00
2019-02-22T01:40:43.172Z,45.80
2019-02-22T01:43:02.031Z,46.00
2019-02-22T01:45:29.552Z,46.30
2019-02-22T01:47:57.087Z,46.10
2019-02-22T01:50:24.678Z,46.10
2019-02-22T01:52:52.203Z,46.10
2019-02-22T01:55:19.721Z,45.80
2019-02-22T01:57:47.275Z,45.90
2019-02-22T02:00:14.920Z,45.90
2019-02-22T02:02:42.477Z,45.90
2019-02-22T02:05:10.040Z,45.80
2019-02-22T02:07:37.593Z,45.80
2019-02-22T02:10:05.435Z,45.80
2019-02-22T02:12:32.976Z,45.80
2019-02-22T02:15:00.499Z,46.00
2019-02-22T02:17:28.028Z,45.80
2019-02-22T02:19:55.545Z,45.90
2019-02-22T02:22:23.063Z,45.90
2019-02-22T02:24:50.580Z,45.80
2019-02-22T02:27:18.125Z,45.80
2019-02-22T02:29:45.636Z,45.80
2019-02-22T02:32:13.170Z,45.80
2019-02-22T02:34:40.704Z,45.90
2019-02-22T02:37:08.223Z,45.80
2019-02-22T02:39:35.756Z,45.90
2019-02-22T02:42:03.285Z,45.90
2019-02-22T02:44:30.881Z,46.00
2019-02-22T02:46:58.410Z,45.80
2019-02-22T02:49:25.937Z,46.20
2019-02-22T02:51:53.462Z,45.80
2019-02-22T02:54:21.007Z,45.90
2019-02-22T02:56:48.601Z,45.80
2019-02-22T02:59:16.117Z,45.80
2019-02-22T03:01:43.792Z,45.90
2019-02-22T03:04:11.423Z,45.80
2019-02-22T03:06:40.597Z,45.90
2019-02-22T03:09:09.606Z,45.80
2019-02-22T03:11:37.129Z,46.40
2019-02-22T03:14:04.801Z,45.80
2019-02-22T03:16:32.326Z,45.80
2019-02-22T03:18:59.854Z,45.80
2019-02-22T03:21:27.385Z,46.00
2019-02-22T03:23:54.931Z,46.20
2019-02-22T03:26:22.525Z,45.80
2019-02-22T03:28:50.044Z,46.30
2019-02-22T03:31:17.566Z,46.20
2019-02-22T03:33:45.595Z,46.40
2019-02-22T03:36:13.122Z,46.30
2019-02-22T03:38:40.646Z,46.10
2019-02-22T03:41:08.179Z,46.00
2019-02-22T03:43:35.699Z,45.90
2019-02-22T03:46:03.224Z,45.80
2019-02-22T03:48:30.959Z,45.90
2019-02-22T03:50:58.551Z,45.80
2019-02-22T03:53:27.714Z,45.80
2019-02-22T03:55:55.252Z,45.80
2019-02-22T03:58:22.841Z,45.80
2019-02-22T04:00:50.401Z,46.10
2019-02-22T04:03:17.987Z,46.00
2019-02-22T04:05:45.520Z,46.20
2019-02-22T04:08:13.119Z,46.00
2019-02-22T04:10:40.664Z,46.60
2019-02-22T04:13:08.193Z,45.80
2019-02-22T04:15:35.801Z,45.90
2019-02-22T04:18:03.311Z,45.90
2019-02-22T04:20:30.846Z,45.90
2019-02-22T04:22:58.391Z,45.90
2019-02-22T04:25:25.920Z,46.00
2019-02-22T04:27:53.451Z,46.00
2019-02-22T04:30:21.051Z,45.90
2019-02-22T04:32:48.577Z,46.30
2019-02-22T04:35:16.115Z,46.50
2019-02-22T04:37:43.669Z,46.20
2019-02-22T04:40:11.201Z,46.10
2019-02-22T04:42:38.730Z,45.90
2019-02-22T04:45:06.248Z,45.80
2019-02-22T04:47:33.793Z,45.90
2019-02-22T04:50:01.315Z,45.90
2019-02-22T04:52:28.894Z,46.00
2019-02-22T04:54:56.414Z,45.80
2019-02-22T04:57:23.923Z,45.90
2019-02-22T04:59:51.456Z,45.80
2019-02-22T05:02:19.046Z,46.00
2019-02-22T05:04:46.595Z,45.90
2019-02-22T05:07:14.185Z,46.30
2019-02-22T05:09:41.719Z,46.20
2019-02-22T05:12:11.147Z,46.00
2019-02-22T05:14:38.989Z,45.90
2019-02-22T05:17:06.531Z,45.90
2019-02-22T05:19:34.125Z,45.90
2019-02-22T05:22:01.698Z,45.90
2019-02-22T05:24:29.224Z,46.00
2019-02-22T05:26:56.781Z,46.00
2019-02-22T05:29:24.364Z,46.40
2019-02-22T05:31:52.206Z,46.10
2019-02-22T05:34:19.789Z,46.30
2019-02-22T05:36:47.380Z,46.50
2019-02-22T05:39:19.464Z,46.60
2019-02-22T05:41:45.617Z,46.80
2019-02-22T05:44:13.147Z,46.90
2019-02-22T05:46:40.672Z,47.00
2019-02-22T05:49:08.218Z,46.90
2019-02-22T05:51:35.812Z,46.90
2019-02-22T05:54:03.355Z,46.90
2019-02-22T05:56:30.874Z,46.80
2019-02-22T05:58:58.467Z,46.80
2019-02-22T06:01:26.009Z,46.70
2019-02-22T06:03:53.607Z,46.70
2019-02-22T06:06:50.253Z,46.60
2019-02-22T06:09:17.810Z,46.50
2019-02-22T06:11:45.396Z,46.50
2019-02-22T06:14:13.025Z,46.70
2019-02-22T06:16:42.194Z,47.10
2019-02-22T06:19:09.771Z,47.10
2019-02-22T06:21:37.334Z,47.10
2019-02-22T06:24:04.928Z,47.10
2019-02-22T06:26:32.514Z,47.00
2019-02-22T06:29:00.099Z,47.10
2019-02-22T06:31:27.625Z,47.00
2019-02-22T06:33:55.153Z,46.90
2019-02-22T06:36:22.670Z,46.80
2019-02-22T06:38:50.267Z,46.80
2019-02-22T06:41:17.798Z,46.80
2019-02-22T06:43:45.339Z,46.80
2019-02-22T06:46:12.872Z,46.80
2019-02-22T06:48:40.733Z,47.20
2019-02-22T06:51:08.259Z,47.30
2019-02-22T06:53:36.214Z,47.30
2019-02-22T06:56:03.785Z,47.20
2019-02-22T06:58:32.206Z,47.00
2019-02-22T07:00:59.746Z,47.10
2019-02-22T07:03:27.270Z,47.00
2019-02-22T07:05:54.797Z,46.90
2019-02-22T07:08:22.376Z,46.80
2019-02-22T07:10:51.694Z,46.80
2019-02-22T07:13:19.219Z,46.70
2019-02-22T07:15:46.763Z,46.10
2019-02-22T07:18:14.355Z,46.60
2019-02-22T07:20:41.890Z,47.00
2019-02-22T07:23:09.418Z,47.10
2019-02-22T07:25:36.954Z,47.30
2019-02-22T07:28:04.481Z,47.10
2019-02-22T07:30:32.023Z,47.00
2019-02-22T07:32:59.669Z,46.80
2019-02-22T07:35:27.369Z,46.80
2019-02-22T07:37:54.903Z,46.80
2019-02-22T07:40:22.445Z,46.80
2019-02-22T07:42:49.980Z,46.80
2019-02-22T07:45:17.564Z,46.80
2019-02-22T07:47:45.096Z,46.70
2019-02-22T07:50:12.678Z,46.60
2019-02-22T07:52:40.204Z,46.70
2019-02-22T07:55:08.409Z,47.10
2019-02-22T07:57:36.030Z,47.10
2019-02-22T08:00:05.532Z,47.30
2019-02-22T08:02:33.078Z,47.30
2019-02-22T08:05:00.673Z,47.40
2019-02-22T08:07:28.209Z,47.40
2019-02-22T08:09:55.779Z,47.30
2019-02-22T08:12:23.307Z,47.20
2019-02-22T08:14:50.840Z,47.20
2019-02-22T08:17:18.447Z,47.20
2019-02-22T08:19:46.404Z,47.10
2019-02-22T08:22:14.025Z,47.00
2019-02-22T08:24:41.542Z,47.00
2019-02-22T08:27:09.072Z,47.00
2019-02-22T08:29:38.302Z,47.00
2019-02-22T08:32:06.019Z,47.00
2019-02-22T08:34:33.629Z,47.20
2019-02-22T08:37:01.177Z,47.30
2019-02-22T08:39:28.699Z,47.20
2019-02-22T08:41:56.243Z,47.10
2019-02-22T08:44:23.799Z,47.10
2019-02-22T08:46:51.408Z,47.10
2019-02-22T08:49:18.951Z,47.10
2019-02-22T08:51:47.057Z,47.00
2019-02-22T09:06:07.126Z,47.00
2019-02-22T09:08:34.661Z,47.40
2019-02-22T09:11:02.194Z,47.40
2019-02-22T09:13:29.814Z,47.30
2019-02-22T09:15:57.413Z,47.10
2019-02-22T09:18:24.958Z,47.00
2019-02-22T09:20:52.560Z,47.10
2019-02-22T09:23:20.096Z,47.00
2019-02-22T09:25:47.616Z,47.00
2019-02-22T09:28:15.420Z,47.00
2019-02-22T09:30:42.949Z,46.90
2019-02-22T09:33:10.486Z,46.90
2019-02-22T09:35:38.274Z,46.80
2019-02-22T09:38:06.146Z,46.80
2019-02-22T09:40:33.663Z,47.10
2019-02-22T09:43:01.217Z,47.20
2019-02-22T09:45:28.746Z,47.20
2019-02-22T09:47:56.352Z,47.00
2019-02-22T09:52:09.856Z,47.30
2019-02-22T09:54:37.394Z,47.20
2019-02-22T09:57:05.453Z,47.10
2019-02-22T09:59:33.086Z,47.20
2019-02-22T10:02:00.665Z,47.00
2019-02-22T10:04:28.291Z,47.00
2019-02-22T10:06:55.840Z,46.90
2019-02-22T10:09:23.443Z,46.80
2019-02-22T10:11:50.970Z,47.00
2019-02-22T10:14:18.522Z,47.10
2019-02-22T10:16:46.119Z,47.40
2019-02-22T10:19:13.662Z,47.40
2019-02-22T10:21:41.186Z,47.40
2019-02-22T10:24:08.725Z,47.50
2019-02-22T10:26:36.223Z,47.00
2019-02-22T10:29:03.770Z,47.40
2019-02-22T10:31:31.386Z,47.30
2019-02-22T10:33:58.910Z,47.30
2019-02-22T10:36:26.432Z,47.20
2019-02-22T10:38:53.971Z,47.20
2019-02-22T10:41:21.489Z,47.20
2019-02-22T10:43:49.036Z,47.00
2019-02-22T10:46:16.571Z,47.00
2019-02-22T10:48:44.160Z,47.00
2019-02-22T10:51:11.695Z,47.10
2019-02-22T10:53:39.216Z,47.30
2019-02-22T10:56:06.740Z,47.40
2019-02-22T10:58:34.269Z,47.40
2019-02-22T11:01:01.811Z,47.20
2019-02-22T11:03:29.332Z,47.10
2019-02-22T11:05:56.977Z,47.00
2019-02-22T11:08:24.504Z,46.90
2019-02-22T11:10:52.048Z,47.00
2019-02-22T11:13:21.451Z,46.90
2019-02-22T11:15:48.955Z,46.90
2019-02-22T11:18:16.489Z,46.70
2019-02-22T11:20:44.103Z,46.80
2019-02-22T11:23:11.631Z,46.70
2019-02-22T11:25:39.165Z,46.90
2019-02-22T11:28:06.685Z,47.10
2019-02-22T11:30:34.300Z,47.20
2019-02-22T11:33:01.834Z,47.10
2019-02-22T11:35:29.383Z,47.70
2019-02-22T11:37:56.921Z,46.90
2019-02-22T11:40:24.524Z,46.90
2019-02-22T11:42:52.116Z,46.80
2019-02-22T11:45:19.683Z,46.70
2019-02-22T11:47:47.242Z,46.70
2019-02-22T11:50:14.764Z,46.70
2019-02-22T11:52:42.312Z,46.80
2019-02-22T11:55:10.391Z,46.80
2019-02-22T11:57:37.926Z,46.70
2019-02-22T12:00:14.761Z,46.90
2019-02-22T12:02:45.037Z,47.00
2019-02-22T12:05:11.609Z,47.10
2019-02-22T12:07:39.138Z,46.90
2019-02-22T12:10:07.824Z,46.80
2019-02-22T12:12:35.362Z,46.70
2019-02-22T12:15:02.951Z,46.80
2019-02-22T12:17:30.484Z,46.70
2019-02-22T12:19:58.010Z,46.60
2019-02-22T12:22:25.547Z,46.60
2019-02-22T12:24:53.196Z,46.70
2019-02-22T12:27:20.728Z,46.60
2019-02-22T12:29:48.302Z,46.60
2019-02-22T12:32:15.845Z,46.80
2019-02-22T12:34:43.366Z,47.10
2019-02-22T12:37:10.899Z,47.20
2019-02-22T12:39:38.505Z,47.30
2019-02-22T12:42:06.389Z,47.40
2019-02-22T12:44:33.922Z,47.40
2019-02-22T12:47:01.450Z,47.50
2019-02-22T12:49:28.992Z,47.60
2019-02-22T12:51:56.512Z,47.50
2019-02-22T12:54:24.045Z,47.40
2019-02-22T12:56:57.604Z,47.30
2019-02-22T12:59:21.128Z,47.40
2019-02-22T13:01:48.658Z,47.40
2019-02-22T13:04:16.356Z,47.40
2019-02-22T13:06:44.140Z,47.30
2019-02-22T13:09:11.790Z,47.40
2019-02-22T13:11:39.378Z,47.50
2019-02-22T13:14:06.914Z,47.70
2019-02-22T13:16:34.439Z,47.80
2019-02-22T13:19:02.014Z,47.70
2019-02-22T13:21:29.564Z,47.90
2019-02-22T13:23:57.411Z,48.30
2019-02-22T13:26:25.074Z,48.10
2019-02-22T13:28:52.690Z,48.00
2019-02-22T13:31:29.649Z,47.70
2019-02-22T13:33:49.490Z,47.70
2019-02-22T13:36:17.007Z,47.70
2019-02-22T13:38:44.552Z,47.60
2019-02-22T13:41:12.165Z,47.50
2019-02-22T13:43:39.699Z,47.50
2019-02-22T13:46:07.237Z,47.70
2019-02-22T13:48:34.787Z,47.90
2019-02-22T13:51:02.307Z,48.00
2019-02-22T13:53:29.836Z,47.80
2019-02-22T13:55:57.358Z,47.70
2019-02-22T13:58:24.889Z,47.60
2019-02-22T14:00:53.294Z,47.60
2019-02-22T14:03:20.814Z,47.40
2019-02-22T14:05:48.425Z,47.40
2019-02-22T14:08:15.958Z,47.40
2019-02-22T14:10:43.811Z,47.40
2019-02-22T14:13:11.425Z,47.40
2019-02-22T14:15:38.951Z,47.40
2019-02-22T14:18:06.487Z,47.40
2019-02-22T14:20:34.038Z,47.40
2019-02-22T14:23:03.490Z,47.60
2019-02-22T14:25:30.816Z,47.70
2019-02-22T14:27:58.342Z,47.90
2019-02-22T14:30:25.863Z,47.50
2019-02-22T14:32:53.393Z,47.50
2019-02-22T14:35:20.914Z,46.90
2019-02-22T14:37:48.500Z,47.40
2019-02-22T14:40:16.114Z,47.40
2019-02-22T14:42:43.642Z,47.30
2019-02-22T14:45:11.559Z,47.30
2019-02-22T14:47:39.089Z,47.30
2019-02-22T14:50:08.292Z,47.40
2019-02-22T14:52:35.820Z,47.40
2019-02-22T14:55:03.380Z,47.50
2019-02-22T14:57:30.904Z,47.70
2019-02-22T14:59:58.428Z,47.70
2019-02-22T15:02:25.994Z,47.90
2019-02-22T15:04:53.526Z,48.10
2019-02-22T15:07:21.054Z,48.20
2019-02-22T15:09:48.587Z,48.10
2019-02-22T15:12:16.184Z,48.00
2019-02-22T15:14:43.713Z,47.80
2019-02-22T15:17:27.355Z,47.70
2019-02-22T15:19:54.120Z,47.70
2019-02-22T15:22:21.658Z,47.70
2019-02-22T15:24:49.191Z,47.70
2019-02-22T15:27:16.737Z,47.60
2019-02-22T15:29:44.254Z,47.60
2019-02-22T15:32:11.780Z,47.50
2019-02-22T15:34:39.305Z,47.40
2019-02-22T15:37:06.846Z,47.70
2019-02-22T15:39:34.376Z,47.80
2019-02-22T15:42:02.032Z,47.80
2019-02-22T15:44:29.593Z,47.70
2019-02-22T15:46:57.241Z,47.60
2019-02-22T15:49:24.782Z,47.50
2019-02-22T15:51:52.451Z,47.50
2019-02-22T15:54:19.977Z,47.50
2019-02-22T15:56:47.514Z,47.50
2019-02-22T15:59:15.032Z,47.40
2019-02-22T16:01:42.657Z,47.40
2019-02-22T16:04:17.563Z,47.40
2019-02-22T16:06:45.100Z,47.30
2019-02-22T16:09:12.657Z,47.20
2019-02-22T16:11:40.176Z,47.50
2019-02-22T16:14:07.698Z,47.70
2019-02-22T16:16:35.233Z,47.70
2019-02-22T16:19:03.764Z,47.50
2019-02-22T16:21:31.313Z,47.50
2019-02-22T16:23:58.844Z,47.30
2019-02-22T16:26:27.995Z,47.80
2019-02-22T16:28:55.595Z,47.20
2019-02-22T16:31:23.112Z,47.20
2019-02-22T16:33:50.644Z,47.20
2019-02-22T16:36:18.174Z,47.20
2019-02-22T16:38:45.753Z,47.10
2019-02-22T16:41:13.289Z,47.10
2019-02-22T16:43:40.827Z,47.00
2019-02-22T16:46:08.347Z,47.20
2019-02-22T16:48:35.969Z,47.30
2019-02-22T16:51:03.491Z,47.40
2019-02-22T16:53:31.032Z,47.40
2019-02-22T16:55:58.705Z,47.20
2019-02-22T16:58:26.235Z,47.20
2019-02-22T17:00:53.756Z,47.20
2019-02-22T17:03:21.338Z,47.10
2019-02-22T17:05:48.856Z,47.10
2019-02-22T17:08:16.385Z,47.20
2019-02-22T17:10:43.922Z,47.10
2019-02-22T17:13:11.445Z,47.10
2019-02-22T17:15:38.991Z,47.10
2019-02-22T17:18:06.520Z,47.60
2019-02-22T17:20:34.049Z,47.20
2019-02-22T17:23:02.629Z,47.40
2019-02-22T17:25:30.161Z,47.50
2019-02-22T17:27:57.684Z,47.80
2019-02-22T17:30:25.222Z,47.70
2019-02-22T17:32:52.741Z,47.90
2019-02-22T17:35:20.263Z,48.00
2019-02-22T17:37:48.107Z,47.90
2019-02-22T17:40:17.370Z,47.80
2019-02-22T17:42:44.961Z,47.80
2019-02-22T17:45:12.584Z,47.70
2019-02-22T17:47:44.157Z,47.80
2019-02-22T17:50:11.825Z,47.50
2019-02-22T17:52:40.412Z,47.50
2019-02-22T17:55:08.592Z,47.50
2019-02-22T17:57:36.137Z,47.60
2019-02-22T18:00:05.443Z,47.40
2019-02-22T18:02:32.972Z,47.50
2019-02-22T18:05:00.526Z,48.40
2019-02-22T18:07:28.056Z,47.70
2019-02-22T18:09:55.597Z,47.60
2019-02-22T18:12:23.221Z,47.60
2019-02-22T18:14:50.849Z,47.50
2019-02-22T18:17:18.378Z,47.50
2019-02-22T18:19:45.903Z,47.50
2019-02-22T18:22:13.495Z,47.50
2019-02-22T18:24:41.018Z,47.40
2019-02-22T18:27:08.595Z,47.40
2019-02-22T18:29:36.143Z,47.30
2019-02-22T18:32:03.658Z,47.20
2019-02-22T18:34:31.179Z,47.20
2019-02-22T18:36:58.726Z,48.10
2019-02-22T18:39:26.266Z,47.60
2019-02-22T18:41:53.809Z,47.60
2019-02-22T18:44:21.421Z,47.50
2019-02-22T18:46:48.960Z,47.30
2019-02-22T18:49:16.514Z,47.50
2019-02-22T18:51:44.050Z,47.20
2019-02-22T18:54:11.655Z,47.20
2019-02-22T18:56:39.188Z,47.20
2019-02-22T18:59:06.714Z,47.20
2019-02-22T19:01:34.249Z,47.20
2019-02-22T19:04:01.774Z,47.20
2019-02-22T19:06:29.375Z,47.30
2019-02-22T19:08:57.284Z,47.10
2019-02-22T19:11:24.895Z,47.30
2019-02-22T19:13:52.426Z,47.20
2019-02-22T19:16:20.265Z,47.50
2019-02-22T19:18:50.521Z,47.20
2019-02-22T19:21:18.116Z,47.10
2019-02-22T19:23:45.737Z,47.00
2019-02-22T19:26:13.398Z,47.00
2019-02-22T19:28:40.927Z,46.80
2019-02-22T19:31:08.489Z,46.90
2019-02-22T19:33:36.026Z,46.80
2019-02-22T19:36:03.551Z,46.80
2019-02-22T19:38:31.149Z,46.80
2019-02-22T19:40:58.672Z,46.60
2019-02-22T19:43:26.209Z,46.60
2019-02-22T19:45:53.746Z,46.70
2019-02-22T19:48:21.621Z,46.80
2019-02-22T19:50:49.207Z,46.90
2019-02-22T19:53:16.909Z,46.90
2019-02-22T19:55:44.439Z,46.90
2019-02-22T19:58:11.973Z,47.00
2019-02-22T20:00:39.547Z,46.90
2019-02-22T20:03:07.496Z,46.90
2019-02-22T20:05:35.030Z,46.90
2019-02-22T20:08:02.574Z,46.80
2019-02-22T20:10:30.128Z,46.80
2019-02-22T20:12:57.671Z,46.80
2019-02-22T20:15:25.211Z,46.10
2019-02-22T20:17:54.788Z,46.60
2019-02-22T20:20:22.120Z,46.30
2019-02-22T20:22:49.639Z,46.20
2019-02-22T20:25:17.169Z,46.50
2019-02-22T20:27:44.723Z,46.20
2019-02-22T20:30:13.389Z,46.20
2019-02-22T20:32:41.291Z,46.20
2019-02-22T20:35:10.219Z,46.30
2019-02-22T20:37:38.957Z,46.20
2019-02-22T20:40:07.386Z,46.20
2019-02-22T20:42:34.945Z,46.20
2019-02-22T20:45:02.664Z,46.10
2019-02-22T20:47:30.199Z,46.10
2019-02-22T20:49:57.744Z,46.40
2019-02-22T20:52:25.265Z,46.30
2019-02-22T20:54:52.802Z,46.50
2019-02-22T20:57:20.341Z,46.10
2019-02-22T20:59:48.149Z,46.20
2019-02-22T21:02:15.772Z,46.20
2019-02-22T21:04:43.310Z,46.10
2019-02-22T21:07:11.022Z,46.20
2019-02-22T21:09:38.802Z,46.40
2019-02-22T21:12:06.388Z,46.20
2019-02-22T21:14:33.930Z,46.10
2019-02-22T21:17:01.517Z,46.10
2019-02-22T21:19:29.045Z,46.10
2019-02-22T21:21:56.636Z,46.80
2019-02-22T21:24:24.163Z,46.10
2019-02-22T21:26:51.685Z,46.80
2019-02-22T21:29:19.195Z,46.00
2019-02-22T21:31:47.050Z,46.10
2019-02-22T21:34:14.830Z,46.00
2019-02-22T21:36:42.417Z,46.10
2019-02-22T21:39:09.933Z,46.00
2019-02-22T21:41:37.478Z,46.80
2019-02-22T21:44:05.004Z,46.00
2019-02-22T21:46:32.544Z,46.00
2019-02-22T21:49:00.079Z,46.00
2019-02-22T21:51:27.615Z,46.10
2019-02-22T21:53:55.209Z,46.10
2019-02-22T21:56:22.800Z,46.20
2019-02-22T21:58:50.312Z,46.00
2019-02-22T22:01:17.846Z,46.00
2019-02-22T22:03:45.473Z,45.90
2019-02-22T22:06:13.013Z,45.90
2019-02-22T22:08:40.604Z,45.90
2019-02-22T22:11:08.141Z,46.00
2019-02-22T22:13:35.674Z,46.20
2019-02-22T22:16:03.533Z,46.10
2019-02-22T22:18:38.489Z,46.20
2019-02-22T22:21:19.822Z,46.10
2019-02-22T22:23:47.368Z,45.90
2019-02-22T22:26:14.904Z,46.20
2019-02-22T22:28:42.424Z,46.20
2019-02-22T22:31:09.952Z,46.10
2019-02-22T22:33:37.483Z,46.20
2019-02-22T22:36:05.003Z,46.20
2019-02-22T22:38:32.534Z,46.20
2019-02-22T22:41:00.153Z,46.10
2019-02-22T22:43:27.752Z,46.20
2019-02-22T22:45:55.278Z,46.10
2019-02-22T22:48:22.804Z,46.20
2019-02-22T22:50:50.329Z,46.10
2019-02-22T22:53:17.863Z,46.10
2019-02-22T22:55:45.459Z,46.10
2019-02-22T22:58:13.065Z,46.10
2019-02-22T23:00:52.802Z,46.00
2019-02-22T23:03:20.506Z,46.10
2019-02-22T23:05:48.035Z,46.00
2019-02-22T23:08:15.563Z,46.00
2019-02-22T23:10:43.088Z,46.00
2019-02-22T23:13:10.619Z,46.00
2019-02-22T23:15:38.143Z,46.50
2019-02-22T23:18:05.676Z,46.00
2019-02-22T23:20:33.206Z,46.00
2019-02-22T23:23:00.808Z,46.20
2019-02-22T23:25:28.346Z,46.00
2019-02-22T23:27:55.880Z,46.10
2019-02-22T23:30:23.414Z,46.10
2019-02-22T23:32:50.953Z,46.00
2019-02-22T23:35:18.552Z,46.00
2019-02-22T23:37:46.410Z,45.90
2019-02-22T23:40:14.017Z,45.70
2019-02-22T23:42:41.538Z,45.70
2019-02-22T23:45:09.070Z,45.60
2019-02-22T23:47:36.582Z,45.50
2019-02-22T23:50:04.980Z,45.50
2019-02-22T23:52:33.931Z,45.50
2019-02-22T23:55:01.695Z,45.60
2019-02-22T23:57:29.225Z,45.70
2019-02-22T23:59:57.102Z,45.80
